Time,TemperatureF,DewpointF,PressureIn,WindDirection,WindDirectionDegrees,WindSpeedMPH,WindSpeedGustMPH,Humidity,HourlyPrecipIn,Conditions,Clouds,dailyrainin,SoftwareType,DateUTC
2013-12-20 00:00:00,38.0,28.4,30.22,SSW,202,3.5,3.5,68,0.00,CLR,,0.00,WeatherDisplay:10.37,2013-12-20 05:00:00,
2013-12-20 00:01:00,38.0,28.4,30.22,SSW,202,3.5,3.5,68,0.00,CLR,,0.00,WeatherDisplay:10.37,2013-12-20 05:01:00,
2013-12-20 00:02:00,38.0,28.4,30.22,SSW,202,3.5,3.5,68,0.00,CLR,,0.00,WeatherDisplay:10.37,2013-12-20 05:02:00,
2013-12-20 00:03:00,38.0,28.4,30.22,SSW,202,3.5,3.5,68,0.00,CLR,,0.00,WeatherDisplay:10.37,2013-12-20 05:03:00,
2013-12-20 00:04:00,38.0,28.4,30.22,SSW,202,3.5,3.5,68,0.00,CLR,,0.00,WeatherDisplay:10.37,2013-12-20 05:04:00,
2013-12-20 00:09:00,38.0,28.7,30.22,SSW,202,2.3,2.3,69,0.00,CLR,,0.00,WeatherDisplay:10.37,2013-12-20 05:09:00,
2013-12-20 00:14:00,38.0,28.7,30.22,SSW,202,1.2,1.6,69,0.00,CLR,,0.00,WeatherDisplay:10.37,2013-12-20 05:14:00,
2013-12-20 00:19:00,38.0,28.7,30.22,SSW,202,2.3,0.0,69,0.00,CLR,,0.00,WeatherDisplay:10.37,2013-12-20 05:19:00,
2013-12-20 00:24:00,37.9,28.6,30.22,SSW,202,2.3,2.3,69,0.00,CLR,,0.00,WeatherDisplay:10.37,2013-12-20 05:24:00,
2013-12-20 00:29:00,37.9,29.0,30.22,SSW,202,0.0,0.0,70,0.00,CLR,,0.00,WeatherDisplay:10.37,2013-12-20 05:29:00,
2013-12-20 00:34:00,38.0,29.4,30.22,SSW,202,0.0,0.0,71,0.00,CLR,,0.00,WeatherDisplay:10.37,2013-12-20 05:34:00,
2013-12-20 00:39:00,37.9,29.3,30.21,SSW,202,0.0,0.0,71,0.00,CLR,,0.00,WeatherDisplay:10.37,2013-12-20 05:39:00,
2013-12-20 00:44:00,37.9,29.3,30.22,SSW,202,0.0,0.0,71,0.00,CLR,,0.00,WeatherDisplay:10.37,2013-12-20 05:44:00,
2013-12-20 00:47:00,37.9,29.7,30.22,SSW,202,1.2,0.0,72,0.00,CLR,,0.00,WeatherDisplay:10.37,2013-12-20 05:47:00,
2013-12-20 00:52:00,37.9,29.7,30.22,SSW,202,2.3,0.0,72,0.00,CLR,,0.00,WeatherDisplay:10.37,2013-12-20 05:52:00,
2013-12-20 00:57:00,37.9,29.7,30.22,SSW,202,0.0,0.0,72,0.00,CLR,,0.00,WeatherDisplay:10.37,2013-12-20 05:57:00,
2013-12-20 01:02:00,37.9,29.7,30.22,SSW,202,0.0,0.0,72,0.00,CLR,,0.00,WeatherDisplay:10.37,2013-12-20 06:02:00,
2013-12-20 01:07:00,37.9,29.7,30.22,SSW,202,0.0,0.0,72,0.00,CLR,,0.00,WeatherDisplay:10.37,2013-12-20 06:07:00,
2013-12-20 01:15:00,37.9,30.0,30.22,SSW,202,0.0,0.0,73,0.00,CLR,,0.00,WeatherDisplay:10.37,2013-12-20 06:15:00,
2013-12-20 01:20:00,37.9,30.7,30.22,SSW,202,0.0,0.0,75,0.00,CLR,,0.00,WeatherDisplay:10.37,2013-12-20 06:20:00,
2013-12-20 01:25:00,37.9,31.0,30.22,SSW,202,3.5,3.5,76,0.00,CLR,,0.00,WeatherDisplay:10.37,2013-12-20 06:25:00,
2013-12-20 01:30:00,37.9,31.0,30.22,SSW,202,0.0,0.0,76,0.00,CLR,,0.00,WeatherDisplay:10.37,2013-12-20 06:30:00,
2013-12-20 01:35:00,37.8,30.9,30.22,SSW,202,0.0,0.0,76,0.00,CLR,,0.00,WeatherDisplay:10.37,2013-12-20 06:35:00,
2013-12-20 01:40:00,37.8,30.9,30.22,SSW,202,0.0,0.0,76,0.00,CLR,,0.00,WeatherDisplay:10.37,2013-12-20 06:40:00,
2013-12-20 01:45:00,37.7,30.8,30.22,SSW,202,0.0,0.0,76,0.00,CLR,,0.00,WeatherDisplay:10.37,2013-12-20 06:45:00,
2013-12-20 01:50:00,37.6,30.7,30.22,SSW,202,0.0,0.0,76,0.00,CLR,,0.00,WeatherDisplay:10.37,2013-12-20 06:50:00,
2013-12-20 01:55:00,37.6,31.0,30.21,SSW,202,0.0,0.0,77,0.00,CLR,,0.00,WeatherDisplay:10.37,2013-12-20 06:55:00,
2013-12-20 02:00:00,37.5,30.9,30.21,SSW,202,0.0,0.0,77,0.00,CLR,,0.00,WeatherDisplay:10.37,2013-12-20 07:00:00,
2013-12-20 02:05:00,37.5,30.9,30.21,SSW,202,1.2,0.0,77,0.00,CLR,,0.00,WeatherDisplay:10.37,2013-12-20 07:05:00,
2013-12-20 02:10:00,37.5,31.3,30.21,SSW,202,0.0,0.0,78,0.00,CLR,,0.00,WeatherDisplay:10.37,2013-12-20 07:10:00,
2013-12-20 02:15:00,37.4,31.2,30.21,SSW,202,0.0,0.0,78,0.00,CLR,,0.00,WeatherDisplay:10.37,2013-12-20 07:15:00,
2013-12-20 02:20:00,37.4,31.2,30.21,SSW,202,0.0,0.0,78,0.00,CLR,,0.00,WeatherDisplay:10.37,2013-12-20 07:20:00,
2013-12-20 02:25:00,37.4,31.5,30.21,SSW,202,0.0,0.0,79,0.00,CLR,,0.00,WeatherDisplay:10.37,2013-12-20 07:25:00,
2013-12-20 02:30:00,37.5,31.6,30.21,SSW,202,0.0,0.0,79,0.00,CLR,,0.00,WeatherDisplay:10.37,2013-12-20 07:30:00,
2013-12-20 02:35:00,37.4,31.5,30.21,SSW,202,0.0,0.0,79,0.00,CLR,,0.00,WeatherDisplay:10.37,2013-12-20 07:35:00,
2013-12-20 02:40:00,37.4,31.8,30.21,SSW,202,0.0,0.0,80,0.00,CLR,,0.00,WeatherDisplay:10.37,2013-12-20 07:40:00,
2013-12-20 02:45:00,37.4,31.8,30.22,SSW,202,0.0,0.0,80,0.00,CLR,,0.00,WeatherDisplay:10.37,2013-12-20 07:45:00,
2013-12-20 02:50:00,37.4,31.8,30.22,SSW,202,0.0,0.0,80,0.00,CLR,,0.00,WeatherDisplay:10.37,2013-12-20 07:50:00,
2013-12-20 02:55:00,37.3,31.7,30.22,SSW,202,0.0,0.0,80,0.00,CLR,,0.00,WeatherDisplay:10.37,2013-12-20 07:55:00,
2013-12-20 03:00:00,37.2,31.6,30.22,SSW,202,0.0,0.0,80,0.00,CLR,,0.00,WeatherDisplay:10.37,2013-12-20 08:00:00,
2013-12-20 03:05:00,37.1,31.5,30.22,SSW,202,0.0,0.0,80,0.00,CLR,,0.00,WeatherDisplay:10.37,2013-12-20 08:05:00,
2013-12-20 03:10:00,36.9,31.3,30.22,SSW,202,0.0,0.0,80,0.00,CLR,,0.00,WeatherDisplay:10.37,2013-12-20 08:10:00,
2013-12-20 03:15:00,36.9,31.3,30.22,SSW,202,0.0,0.0,80,0.00,CLR,,0.00,WeatherDisplay:10.37,2013-12-20 08:15:00,
2013-12-20 03:20:00,36.7,31.4,30.22,SSW,202,0.0,0.0,81,0.00,CLR,,0.00,WeatherDisplay:10.37,2013-12-20 08:20:00,
2013-12-20 03:25:00,36.6,31.3,30.22,SSW,202,0.0,0.0,81,0.00,CLR,,0.00,WeatherDisplay:10.37,2013-12-20 08:25:00,
2013-12-20 03:30:00,36.5,31.2,30.22,SSW,202,0.0,0.0,81,0.00,CLR,,0.00,WeatherDisplay:10.37,2013-12-20 08:30:00,
2013-12-20 03:35:00,36.4,31.4,30.22,SSW,202,0.0,0.0,82,0.00,CLR,,0.00,WeatherDisplay:10.37,2013-12-20 08:35:00,
2013-12-20 03:40:00,36.3,31.3,30.22,SSW,202,0.0,0.0,82,0.00,CLR,,0.00,WeatherDisplay:10.37,2013-12-20 08:40:00,
2013-12-20 03:45:00,36.1,31.1,30.22,SSW,202,0.0,0.0,82,0.00,CLR,,0.00,WeatherDisplay:10.37,2013-12-20 08:45:00,
2013-12-20 03:50:00,36.0,31.0,30.22,SSW,202,0.0,0.0,82,0.00,CLR,,0.00,WeatherDisplay:10.37,2013-12-20 08:50:00,
2013-12-20 03:55:00,35.9,30.9,30.22,SSW,202,0.0,0.0,82,0.00,CLR,,0.00,WeatherDisplay:10.37,2013-12-20 08:55:00,
2013-12-20 04:00:00,35.8,31.4,30.22,SSW,202,0.0,0.0,84,0.00,CLR,,0.00,WeatherDisplay:10.37,2013-12-20 09:00:00,
2013-12-20 04:06:00,35.7,31.3,30.22,SSW,202,0.0,0.0,84,0.00,CLR,,0.00,WeatherDisplay:10.37,2013-12-20 09:06:00,
2013-12-20 04:11:00,35.6,31.2,30.22,SSW,202,0.0,0.0,84,0.00,CLR,,0.00,WeatherDisplay:10.37,2013-12-20 09:11:00,
2013-12-20 04:16:00,35.5,31.4,30.22,SSW,202,0.0,0.0,85,0.00,CLR,,0.00,WeatherDisplay:10.37,2013-12-20 09:16:00,
2013-12-20 04:21:00,35.4,31.3,30.23,SSW,202,0.0,0.0,85,0.00,CLR,,0.00,WeatherDisplay:10.37,2013-12-20 09:21:00,
2013-12-20 04:26:00,35.4,31.3,30.23,SSW,202,0.0,0.0,85,0.00,CLR,,0.00,WeatherDisplay:10.37,2013-12-20 09:26:00,
2013-12-20 04:31:00,35.3,31.5,30.23,SSW,202,0.0,0.0,86,0.00,CLR,,0.00,WeatherDisplay:10.37,2013-12-20 09:31:00,
2013-12-20 04:36:00,35.2,31.4,30.23,SSW,202,0.0,0.0,86,0.00,CLR,,0.00,WeatherDisplay:10.37,2013-12-20 09:36:00,
2013-12-20 04:41:00,35.2,31.4,30.23,SSW,202,0.0,0.0,86,0.00,CLR,,0.00,WeatherDisplay:10.37,2013-12-20 09:41:00,
2013-12-20 04:46:00,35.1,31.3,30.23,SSW,202,0.0,0.0,86,0.00,CLR,,0.00,WeatherDisplay:10.37,2013-12-20 09:46:00,
2013-12-20 04:51:00,35.1,31.3,30.23,SSW,202,0.0,0.0,86,0.00,CLR,,0.00,WeatherDisplay:10.37,2013-12-20 09:51:00,
2013-12-20 04:56:00,35.0,31.2,30.23,SSW,202,0.0,0.0,86,0.00,CLR,,0.00,WeatherDisplay:10.37,2013-12-20 09:56:00,
2013-12-20 05:01:00,34.9,31.1,30.23,SSW,202,0.0,0.0,86,0.00,CLR,,0.00,WeatherDisplay:10.37,2013-12-20 10:01:00,
2013-12-20 05:06:00,34.9,31.1,30.23,SSW,202,0.0,0.0,86,0.00,CLR,,0.00,WeatherDisplay:10.37,2013-12-20 10:06:00,
2013-12-20 05:11:00,34.8,31.3,30.23,SSW,202,0.0,0.0,87,0.00,CLR,,0.00,WeatherDisplay:10.37,2013-12-20 10:11:00,
2013-12-20 05:16:00,34.8,31.3,30.23,SSW,202,0.0,0.0,87,0.00,CLR,,0.00,WeatherDisplay:10.37,2013-12-20 10:16:00,
2013-12-20 05:21:00,34.7,31.2,30.23,SSW,202,0.0,0.0,87,0.00,CLR,,0.00,WeatherDisplay:10.37,2013-12-20 10:21:00,
2013-12-20 05:26:00,34.5,31.0,30.23,SSW,202,0.0,0.0,87,0.00,CLR,,0.00,WeatherDisplay:10.37,2013-12-20 10:26:00,
2013-12-20 05:31:00,34.5,31.0,30.23,SSW,202,0.0,0.0,87,0.00,CLR,,0.00,WeatherDisplay:10.37,2013-12-20 10:31:00,
2013-12-20 05:36:00,34.5,31.0,30.23,SSW,202,0.0,0.0,87,0.00,CLR,,0.00,WeatherDisplay:10.37,2013-12-20 10:36:00,
2013-12-20 05:41:00,34.5,31.3,30.23,SSW,202,0.0,0.0,88,0.00,CLR,,0.00,WeatherDisplay:10.37,2013-12-20 10:41:00,
2013-12-20 05:46:00,34.5,31.3,30.23,SSW,202,0.0,0.0,88,0.00,CLR,,0.00,WeatherDisplay:10.37,2013-12-20 10:46:00,
2013-12-20 05:51:00,34.5,31.3,30.23,SSW,202,0.0,0.0,88,0.00,CLR,,0.00,WeatherDisplay:10.37,2013-12-20 10:51:00,
2013-12-20 05:56:00,34.5,31.3,30.23,SSW,202,0.0,0.0,88,0.00,CLR,,0.00,WeatherDisplay:10.37,2013-12-20 10:56:00,
2013-12-20 06:01:00,34.4,31.2,30.23,SSW,202,0.0,0.0,88,0.00,CLR,,0.00,WeatherDisplay:10.37,2013-12-20 11:01:00,
2013-12-20 06:06:00,34.3,31.1,30.23,SSW,202,0.0,0.0,88,0.00,CLR,,0.00,WeatherDisplay:10.37,2013-12-20 11:06:00,
2013-12-20 06:11:00,34.2,31.0,30.23,SSW,202,0.0,0.0,88,0.00,CLR,,0.00,WeatherDisplay:10.37,2013-12-20 11:11:00,
2013-12-20 06:16:00,34.1,30.9,30.23,SSW,202,0.0,0.0,88,0.00,CLR,,0.00,WeatherDisplay:10.37,2013-12-20 11:16:00,
2013-12-20 06:21:00,34.0,30.8,30.23,SSW,202,0.0,0.0,88,0.00,CLR,,0.00,WeatherDisplay:10.37,2013-12-20 11:21:00,
2013-12-20 06:26:00,33.9,30.7,30.23,SSW,202,0.0,0.0,88,0.00,CLR,,0.00,WeatherDisplay:10.37,2013-12-20 11:26:00,
2013-12-20 06:31:00,33.8,30.6,30.23,SSW,202,0.0,0.0,88,0.00,CLR,,0.00,WeatherDisplay:10.37,2013-12-20 11:31:00,
2013-12-20 06:36:00,33.7,30.5,30.23,SSW,202,0.0,0.0,88,0.00,CLR,,0.00,WeatherDisplay:10.37,2013-12-20 11:36:00,
2013-12-20 06:41:00,33.7,30.5,30.23,SSW,202,0.0,0.0,88,0.00,CLR,,0.00,WeatherDisplay:10.37,2013-12-20 11:41:00,
2013-12-20 06:46:00,33.6,30.7,30.23,SSW,202,0.0,0.0,89,0.00,CLR,,0.00,WeatherDisplay:10.37,2013-12-20 11:46:00,
2013-12-20 06:51:00,33.6,30.7,30.23,SSW,202,0.0,0.0,89,0.00,CLR,,0.00,WeatherDisplay:10.37,2013-12-20 11:51:00,
2013-12-20 06:56:00,33.5,30.6,30.23,SSW,202,0.0,0.0,89,0.00,CLR,,0.00,WeatherDisplay:10.37,2013-12-20 11:56:00,
2013-12-20 07:01:00,33.5,30.6,30.23,SSW,202,0.0,0.0,89,0.00,CLR,,0.00,WeatherDisplay:10.37,2013-12-20 12:01:00,
2013-12-20 07:06:00,33.5,30.6,30.23,SSW,202,0.0,0.0,89,0.00,CLR,,0.00,WeatherDisplay:10.37,2013-12-20 12:06:00,
2013-12-20 07:11:00,33.5,30.6,30.23,SSW,202,0.0,0.0,89,0.00,CLR,,0.00,WeatherDisplay:10.37,2013-12-20 12:11:00,
2013-12-20 07:16:00,33.5,30.6,30.24,SSW,202,0.0,0.0,89,0.00,CLR,,0.00,WeatherDisplay:10.37,2013-12-20 12:16:00,
2013-12-20 07:21:00,33.4,30.5,30.24,SSW,202,0.0,0.0,89,0.00,CLR,,0.00,WeatherDisplay:10.37,2013-12-20 12:21:00,
2013-12-20 07:26:00,33.4,31.1,30.24,SSW,202,0.0,0.0,91,0.00,CLR,,0.00,WeatherDisplay:10.37,2013-12-20 12:26:00,
2013-12-20 07:31:00,33.4,31.1,30.24,SSW,202,0.0,0.0,91,0.00,CLR,,0.00,WeatherDisplay:10.37,2013-12-20 12:31:00,
2013-12-20 07:36:00,33.5,31.2,30.24,SSW,202,0.0,0.0,91,0.00,CLR,,0.00,WeatherDisplay:10.37,2013-12-20 12:36:00,
2013-12-20 07:41:00,33.5,31.2,30.24,SSW,202,0.0,0.0,91,0.00,CLR,,0.00,WeatherDisplay:10.37,2013-12-20 12:41:00,
2013-12-20 07:46:00,33.6,31.3,30.24,SSW,202,0.0,0.0,91,0.00,CLR,,0.00,WeatherDisplay:10.37,2013-12-20 12:46:00,
2013-12-20 07:51:00,33.7,31.6,30.24,SSW,202,0.0,0.0,92,0.00,CLR,,0.00,WeatherDisplay:10.37,2013-12-20 12:51:00,
2013-12-20 07:56:00,33.9,31.8,30.24,SSW,202,0.0,0.0,92,0.00,CLR,,0.00,WeatherDisplay:10.37,2013-12-20 12:56:00,
2013-12-20 08:01:00,34.1,32.0,30.24,SSW,202,0.0,0.0,92,0.00,CLR,,0.00,WeatherDisplay:10.37,2013-12-20 13:01:00,
2013-12-20 08:06:00,34.4,32.3,30.24,SSW,202,0.0,0.0,92,0.00,CLR,,0.00,WeatherDisplay:10.37,2013-12-20 13:06:00,
2013-12-20 08:11:00,34.5,32.4,30.24,SSW,202,0.0,0.0,92,0.00,CLR,,0.00,WeatherDisplay:10.37,2013-12-20 13:11:00,
2013-12-20 08:16:00,34.7,32.6,30.24,SSW,202,0.0,0.0,92,0.00,CLR,,0.00,WeatherDisplay:10.37,2013-12-20 13:16:00,
2013-12-20 08:21:00,35.0,33.2,30.24,SSW,202,0.0,0.0,93,0.00,CLR,,0.00,WeatherDisplay:10.37,2013-12-20 13:21:00,
2013-12-20 08:26:00,35.3,33.5,30.24,SSW,202,0.0,0.0,93,0.00,CLR,,0.00,WeatherDisplay:10.37,2013-12-20 13:26:00,
2013-12-20 08:31:00,35.8,34.0,30.24,SSW,202,0.0,0.0,93,0.00,CLR,,0.00,WeatherDisplay:10.37,2013-12-20 13:31:00,
2013-12-20 08:36:00,36.3,34.5,30.24,SSW,202,0.0,0.0,93,0.00,CLR,,0.00,WeatherDisplay:10.37,2013-12-20 13:36:00,
2013-12-20 08:41:00,36.9,35.3,30.24,SSW,202,0.0,0.0,94,0.00,CLR,,0.00,WeatherDisplay:10.37,2013-12-20 13:41:00,
2013-12-20 08:46:00,37.7,36.1,30.24,SSW,202,0.0,0.0,94,0.00,CLR,,0.00,WeatherDisplay:10.37,2013-12-20 13:46:00,
2013-12-20 08:51:00,38.6,37.0,30.24,SSW,202,0.0,0.0,94,0.00,CLR,,0.00,WeatherDisplay:10.37,2013-12-20 13:51:00,
2013-12-20 08:56:00,39.7,38.4,30.24,SSW,202,0.0,0.0,95,0.00,CLR,,0.00,WeatherDisplay:10.37,2013-12-20 13:56:00,
2013-12-20 09:01:00,40.7,39.4,30.24,SSW,202,0.0,0.0,95,0.00,CLR,,0.00,WeatherDisplay:10.37,2013-12-20 14:01:00,
2013-12-20 09:06:00,41.9,40.6,30.24,SSW,202,3.5,3.5,95,0.00,CLR,,0.00,WeatherDisplay:10.37,2013-12-20 14:06:00,
2013-12-20 09:11:00,43.1,41.8,30.24,SSW,202,1.2,1.2,95,0.00,CLR,,0.00,WeatherDisplay:10.37,2013-12-20 14:11:00,
2013-12-20 09:16:00,44.2,43.1,30.24,SSW,202,3.5,3.5,96,0.00,CLR,,0.00,WeatherDisplay:10.37,2013-12-20 14:16:00,
2013-12-20 09:21:00,45.1,43.8,30.24,SSW,202,3.5,3.5,95,0.00,CLR,,0.00,WeatherDisplay:10.37,2013-12-20 14:21:00,
2013-12-20 09:26:00,45.8,44.4,30.24,SSW,202,3.5,3.5,95,0.00,CLR,,0.00,WeatherDisplay:10.37,2013-12-20 14:26:00,
2013-12-20 09:31:00,46.7,45.6,30.24,SW,224,4.6,4.6,96,0.00,CLR,,0.00,WeatherDisplay:10.37,2013-12-20 14:31:00,
2013-12-20 09:36:00,47.4,46.0,30.25,SSW,194,6.9,6.9,95,0.00,CLR,,0.00,WeatherDisplay:10.37,2013-12-20 14:36:00,
2013-12-20 09:41:00,48.2,47.1,30.25,SW,218,6.9,6.9,96,0.00,CLR,,0.00,WeatherDisplay:10.37,2013-12-20 14:41:00,
2013-12-20 09:46:00,49.1,47.7,30.24,SSW,196,6.0,6.0,95,0.00,CLR,,0.00,WeatherDisplay:10.37,2013-12-20 14:46:00,
2013-12-20 09:51:00,49.8,48.4,30.25,SW,219,4.6,4.6,95,0.00,CLR,,0.00,WeatherDisplay:10.37,2013-12-20 14:51:00,
2013-12-20 09:56:00,50.5,48.8,30.25,SSW,199,6.9,6.9,94,0.00,CLR,,0.00,WeatherDisplay:10.37,2013-12-20 14:56:00,
2013-12-20 10:01:00,51.1,49.1,30.24,SSW,213,10.4,10.4,93,0.00,CLR,,0.00,WeatherDisplay:10.37,2013-12-20 15:01:00,
2013-12-20 10:06:00,51.8,49.5,30.24,SSW,206,4.6,4.6,92,0.00,CLR,,0.00,WeatherDisplay:10.37,2013-12-20 15:06:00,
2013-12-20 10:11:00,52.4,49.3,30.25,SW,219,10.4,10.4,89,0.00,CLR,,0.00,WeatherDisplay:10.37,2013-12-20 15:11:00,
2013-12-20 10:16:00,53.1,49.6,30.25,SW,219,10.4,10.4,88,0.00,CLR,,0.00,WeatherDisplay:10.37,2013-12-20 15:16:00,
2013-12-20 10:21:00,54.0,50.2,30.25,SW,223,8.0,8.0,87,0.00,CLR,,0.00,WeatherDisplay:10.37,2013-12-20 15:21:00,
2013-12-20 10:26:00,54.7,50.3,30.24,SSW,200,11.5,11.5,85,0.00,CLR,,0.00,WeatherDisplay:10.37,2013-12-20 15:26:00,
2013-12-20 10:31:00,55.4,50.0,30.24,SSW,202,8.1,8.1,82,0.00,CLR,,0.00,WeatherDisplay:10.37,2013-12-20 15:31:00,
2013-12-20 10:36:00,55.9,50.2,30.24,SSW,212,10.4,10.4,81,0.00,CLR,,0.00,WeatherDisplay:10.37,2013-12-20 15:36:00,
2013-12-20 10:41:00,56.4,50.3,30.24,SSW,207,9.2,9.2,80,0.00,CLR,,0.00,WeatherDisplay:10.37,2013-12-20 15:41:00,
2013-12-20 10:46:00,56.8,50.4,30.23,SW,219,7.0,7.0,79,0.00,CLR,,0.00,WeatherDisplay:10.37,2013-12-20 15:46:00,
2013-12-20 10:51:00,57.2,50.7,30.23,West,261,4.6,4.6,79,0.00,CLR,,0.00,WeatherDisplay:10.37,2013-12-20 15:51:00,
2013-12-20 10:56:00,57.7,50.9,30.23,SSW,195,6.9,6.9,78,0.00,CLR,,0.00,WeatherDisplay:10.37,2013-12-20 15:56:00,
2013-12-20 11:01:00,58.0,51.2,30.23,SW,223,9.2,9.2,78,0.00,CLR,,0.00,WeatherDisplay:10.37,2013-12-20 16:01:00,
2013-12-20 11:06:00,58.3,51.1,30.22,WSW,249,4.6,4.6,77,0.00,CLR,,0.00,WeatherDisplay:10.37,2013-12-20 16:06:00,
2013-12-20 11:11:00,58.7,51.5,30.22,SW,215,11.5,11.5,77,0.00,CLR,,0.00,WeatherDisplay:10.37,2013-12-20 16:11:00,
2013-12-20 11:16:00,59.1,51.9,30.22,SW,216,6.9,6.9,77,0.00,CLR,,0.00,WeatherDisplay:10.37,2013-12-20 16:16:00,
2013-12-20 11:21:00,59.5,51.9,30.22,SW,233,9.2,9.2,76,0.00,CLR,,0.00,WeatherDisplay:10.37,2013-12-20 16:21:00,
2013-12-20 11:26:00,59.8,52.2,30.22,South,187,16.1,16.1,76,0.00,CLR,,0.00,WeatherDisplay:10.37,2013-12-20 16:26:00,
2013-12-20 11:31:00,60.1,52.1,30.22,SSW,210,12.7,12.7,75,0.00,CLR,,0.00,WeatherDisplay:10.37,2013-12-20 16:31:00,
2013-12-20 11:36:00,60.4,52.4,30.22,South,186,11.5,11.5,75,0.00,CLR,,0.00,WeatherDisplay:10.37,2013-12-20 16:36:00,
2013-12-20 11:41:00,60.6,51.9,30.21,SSW,194,11.5,11.5,73,0.00,CLR,,0.00,WeatherDisplay:10.37,2013-12-20 16:41:00,
2013-12-20 11:46:00,60.7,52.0,30.21,South,186,10.4,10.4,73,0.00,CLR,,0.00,WeatherDisplay:10.37,2013-12-20 16:46:00,
2013-12-20 11:51:00,60.9,52.2,30.20,SSW,198,11.5,11.5,73,0.00,CLR,,0.00,WeatherDisplay:10.37,2013-12-20 16:51:00,
2013-12-20 11:56:00,61.2,52.5,30.19,SW,224,9.0,9.0,73,0.00,CLR,,0.00,WeatherDisplay:10.37,2013-12-20 16:56:00,
2013-12-20 12:01:00,61.7,52.6,30.18,SW,215,12.7,12.7,72,0.00,CLR,,0.00,WeatherDisplay:10.37,2013-12-20 17:01:00,
2013-12-20 12:06:00,62.0,52.9,30.18,SSW,206,4.6,4.6,72,0.00,CLR,,0.00,WeatherDisplay:10.37,2013-12-20 17:06:00,
2013-12-20 12:11:00,62.3,52.8,30.18,SW,214,13.8,13.8,71,0.00,CLR,,0.00,WeatherDisplay:10.37,2013-12-20 17:11:00,
2013-12-20 12:16:00,62.5,52.6,30.18,SSW,208,13.8,13.8,70,0.00,CLR,,0.00,WeatherDisplay:10.37,2013-12-20 17:16:00,
2013-12-20 12:21:00,62.7,53.2,30.17,South,188,11.5,11.5,71,0.00,CLR,,0.00,WeatherDisplay:10.37,2013-12-20 17:21:00,
2013-12-20 12:26:00,63.2,53.3,30.17,SSW,192,17.3,17.3,70,0.00,CLR,,0.00,WeatherDisplay:10.37,2013-12-20 17:26:00,
2013-12-20 12:31:00,63.4,53.0,30.17,SSW,198,12.7,12.7,69,0.00,CLR,,0.00,WeatherDisplay:10.37,2013-12-20 17:31:00,
2013-12-20 12:36:00,63.5,53.1,30.16,SSW,195,10.4,10.4,69,0.00,CLR,,0.00,WeatherDisplay:10.37,2013-12-20 17:36:00,
2013-12-20 12:41:00,63.7,53.3,30.16,SSW,198,5.8,5.8,69,0.00,CLR,,0.00,WeatherDisplay:10.37,2013-12-20 17:41:00,
2013-12-20 12:46:00,64.0,53.6,30.16,South,177,11.5,11.5,69,0.00,CLR,,0.00,WeatherDisplay:10.37,2013-12-20 17:46:00,
2013-12-20 12:51:00,64.3,53.9,30.15,SW,215,19.6,19.6,69,0.00,CLR,,0.00,WeatherDisplay:10.37,2013-12-20 17:51:00,
2013-12-20 12:56:00,64.5,54.1,30.15,SSW,211,18.4,18.4,69,0.00,CLR,,0.00,WeatherDisplay:10.37,2013-12-20 17:56:00,
2013-12-20 13:01:00,64.6,54.2,30.15,SSW,195,19.6,19.6,69,0.00,CLR,,0.00,WeatherDisplay:10.37,2013-12-20 18:01:00,
2013-12-20 13:06:00,64.7,54.3,30.15,SW,223,19.6,19.6,69,0.00,CLR,,0.00,WeatherDisplay:10.37,2013-12-20 18:06:00,
2013-12-20 13:11:00,64.8,54.4,30.14,WSW,243,19.6,19.6,69,0.00,CLR,,0.00,WeatherDisplay:10.37,2013-12-20 18:11:00,
2013-12-20 13:16:00,64.8,54.0,30.14,South,190,15.0,15.0,68,0.00,CLR,,0.00,WeatherDisplay:10.37,2013-12-20 18:16:00,
2013-12-20 13:21:00,64.9,54.1,30.14,SSW,211,13.8,13.8,68,0.00,CLR,,0.00,WeatherDisplay:10.37,2013-12-20 18:21:00,
2013-12-20 13:26:00,65.2,54.4,30.14,SW,218,11.5,11.5,68,0.00,CLR,,0.00,WeatherDisplay:10.37,2013-12-20 18:26:00,
2013-12-20 13:31:00,65.5,54.7,30.14,South,191,12.7,12.7,68,0.00,CLR,,0.00,WeatherDisplay:10.37,2013-12-20 18:31:00,
2013-12-20 13:36:00,65.8,54.5,30.13,SSW,196,15.0,15.0,67,0.00,CLR,,0.00,WeatherDisplay:10.37,2013-12-20 18:36:00,
2013-12-20 13:41:00,66.0,54.7,30.13,West,272,16.1,16.1,67,0.00,CLR,,0.00,WeatherDisplay:10.37,2013-12-20 18:41:00,
2013-12-20 13:46:00,66.3,54.6,30.13,SSW,205,15.0,15.0,66,0.00,CLR,,0.00,WeatherDisplay:10.37,2013-12-20 18:46:00,
2013-12-20 13:51:00,66.5,54.8,30.12,SSW,211,18.4,18.4,66,0.00,CLR,,0.00,WeatherDisplay:10.37,2013-12-20 18:51:00,
2013-12-20 13:56:00,66.6,54.5,30.12,SW,218,16.1,16.1,65,0.00,CLR,,0.00,WeatherDisplay:10.37,2013-12-20 18:56:00,
2013-12-20 14:01:00,66.6,54.9,30.12,South,169,12.7,12.7,66,0.00,CLR,,0.00,WeatherDisplay:10.37,2013-12-20 19:01:00,
2013-12-20 14:06:00,66.6,54.5,30.12,WSW,256,15.0,15.0,65,0.00,CLR,,0.00,WeatherDisplay:10.37,2013-12-20 19:06:00,
2013-12-20 14:11:00,66.7,54.6,30.11,South,188,20.7,20.7,65,0.00,CLR,,0.00,WeatherDisplay:10.37,2013-12-20 19:11:00,
2013-12-20 14:16:00,66.7,53.7,30.10,SSW,198,18.4,18.4,63,0.00,CLR,,0.00,WeatherDisplay:10.37,2013-12-20 19:16:00,
2013-12-20 14:21:00,66.6,53.6,30.10,SW,228,15.0,15.0,63,0.00,CLR,,0.00,WeatherDisplay:10.37,2013-12-20 19:21:00,
2013-12-20 14:26:00,66.6,54.0,30.10,SSW,194,11.5,11.5,64,0.00,CLR,,0.00,WeatherDisplay:10.37,2013-12-20 19:26:00,
2013-12-20 14:31:00,66.7,53.7,30.10,South,189,13.8,13.8,63,0.00,CLR,,0.00,WeatherDisplay:10.37,2013-12-20 19:31:00,
2013-12-20 14:36:00,66.8,53.8,30.10,SW,236,18.4,18.4,63,0.00,CLR,,0.00,WeatherDisplay:10.37,2013-12-20 19:36:00,
2013-12-20 14:41:00,66.8,53.8,30.10,SW,217,16.1,16.1,63,0.00,CLR,,0.00,WeatherDisplay:10.37,2013-12-20 19:41:00,
2013-12-20 14:46:00,66.8,53.4,30.11,SW,217,15.0,15.0,62,0.00,CLR,,0.00,WeatherDisplay:10.37,2013-12-20 19:46:00,
2013-12-20 14:51:00,66.9,53.5,30.10,SW,215,16.1,16.1,62,0.00,CLR,,0.00,WeatherDisplay:10.37,2013-12-20 19:51:00,
2013-12-20 14:56:00,66.9,53.5,30.10,SSW,202,12.7,12.7,62,0.00,CLR,,0.00,WeatherDisplay:10.37,2013-12-20 19:56:00,
2013-12-20 15:01:00,67.0,53.5,30.11,SW,226,16.1,16.1,62,0.00,CLR,,0.00,WeatherDisplay:10.37,2013-12-20 20:01:00,
2013-12-20 15:06:00,67.0,53.5,30.11,SW,217,18.4,18.4,62,0.00,CLR,,0.00,WeatherDisplay:10.37,2013-12-20 20:06:00,
2013-12-20 15:11:00,66.8,53.4,30.11,SW,221,15.0,15.0,62,0.00,CLR,,0.00,WeatherDisplay:10.37,2013-12-20 20:11:00,
2013-12-20 15:16:00,66.7,53.3,30.11,SSW,213,11.5,11.5,62,0.00,CLR,,0.00,WeatherDisplay:10.37,2013-12-20 20:16:00,
2013-12-20 15:21:00,66.3,53.3,30.11,SSW,193,12.0,12.0,63,0.00,CLR,,0.00,WeatherDisplay:10.37,2013-12-20 20:21:00,
2013-12-20 15:26:00,65.9,52.9,30.11,SSW,198,13.0,13.0,63,0.00,CLR,,0.00,WeatherDisplay:10.37,2013-12-20 20:26:00,
2013-12-20 15:31:00,65.8,52.9,30.11,South,182,15.0,15.0,63,0.00,CLR,,0.00,WeatherDisplay:10.37,2013-12-20 20:31:00,
2013-12-20 15:36:00,65.6,52.7,30.12,SSW,206,11.5,11.5,63,0.00,CLR,,0.00,WeatherDisplay:10.37,2013-12-20 20:36:00,
2013-12-20 15:41:00,65.4,52.9,30.12,SW,223,10.4,10.4,64,0.00,CLR,,0.00,WeatherDisplay:10.37,2013-12-20 20:41:00,
2013-12-20 15:46:00,65.2,52.7,30.11,SSW,205,11.5,11.5,64,0.00,CLR,,0.00,WeatherDisplay:10.37,2013-12-20 20:46:00,
2013-12-20 15:51:00,64.9,52.4,30.12,SSW,212,11.5,11.5,64,0.00,CLR,,0.00,WeatherDisplay:10.37,2013-12-20 20:51:00,
2013-12-20 15:56:00,64.8,52.8,30.12,SW,227,15.0,15.0,65,0.00,CLR,,0.00,WeatherDisplay:10.37,2013-12-20 20:56:00,
2013-12-20 16:01:00,64.6,52.6,30.12,SSW,211,12.7,12.7,65,0.00,CLR,,0.00,WeatherDisplay:10.37,2013-12-20 21:01:00,
2013-12-20 16:06:00,64.4,52.4,30.12,SW,225,10.4,10.4,65,0.00,CLR,,0.00,WeatherDisplay:10.37,2013-12-20 21:06:00,
2013-12-20 16:11:00,64.3,52.3,30.12,SSW,210,10.4,10.4,65,0.00,CLR,,0.00,WeatherDisplay:10.37,2013-12-20 21:11:00,
2013-12-20 16:16:00,64.2,52.6,30.12,SW,229,10.4,10.4,66,0.00,CLR,,0.00,WeatherDisplay:10.37,2013-12-20 21:16:00,
2013-12-20 16:21:00,64.0,52.4,30.12,SW,234,11.0,11.0,66,0.00,CLR,,0.00,WeatherDisplay:10.37,2013-12-20 21:21:00,
2013-12-20 16:26:00,63.9,52.3,30.12,South,184,12.7,12.7,66,0.00,CLR,,0.00,WeatherDisplay:10.37,2013-12-20 21:26:00,
2013-12-20 16:31:00,63.7,52.1,30.12,SW,222,7.0,7.3,66,0.00,CLR,,0.00,WeatherDisplay:10.37,2013-12-20 21:31:00,
2013-12-20 16:36:00,63.5,51.9,30.12,SSW,203,9.2,9.2,66,0.00,CLR,,0.00,WeatherDisplay:10.37,2013-12-20 21:36:00,
2013-12-20 16:41:00,63.4,51.8,30.13,SW,230,12.7,12.7,66,0.00,CLR,,0.00,WeatherDisplay:10.37,2013-12-20 21:41:00,
2013-12-20 16:46:00,63.2,51.6,30.13,SW,215,12.7,12.7,66,0.00,CLR,,0.00,WeatherDisplay:10.37,2013-12-20 21:46:00,
2013-12-20 16:51:00,63.1,51.6,30.13,SSW,203,10.4,10.4,66,0.00,CLR,,0.00,WeatherDisplay:10.37,2013-12-20 21:51:00,
2013-12-20 16:56:00,63.0,51.9,30.13,SSW,207,9.2,9.2,67,0.00,CLR,,0.00,WeatherDisplay:10.37,2013-12-20 21:56:00,
2013-12-20 17:02:00,62.8,51.7,30.14,SW,218,11.5,11.5,67,0.00,CLR,,0.00,WeatherDisplay:10.37,2013-12-20 22:02:00,
2013-12-20 17:07:00,62.7,51.6,30.13,SW,226,4.6,5.2,67,0.00,CLR,,0.00,WeatherDisplay:10.37,2013-12-20 22:07:00,
2013-12-20 17:12:00,62.6,51.5,30.13,SW,214,8.1,8.1,67,0.00,CLR,,0.00,WeatherDisplay:10.37,2013-12-20 22:12:00,
2013-12-20 17:17:00,62.4,51.7,30.13,SW,227,6.9,6.9,68,0.00,CLR,,0.00,WeatherDisplay:10.37,2013-12-20 22:17:00,
2013-12-20 17:22:00,62.1,51.4,30.13,SW,217,6.9,6.9,68,0.00,CLR,,0.00,WeatherDisplay:10.37,2013-12-20 22:22:00,
2013-12-20 17:27:00,61.9,51.2,30.13,SW,214,3.5,3.5,68,0.00,CLR,,0.00,WeatherDisplay:10.37,2013-12-20 22:27:00,
2013-12-20 17:32:00,61.7,51.0,30.13,SW,214,5.8,5.8,68,0.00,CLR,,0.00,WeatherDisplay:10.37,2013-12-20 22:32:00,
2013-12-20 17:37:00,61.5,50.8,30.13,SW,214,3.5,3.5,68,0.00,CLR,,0.00,WeatherDisplay:10.37,2013-12-20 22:37:00,
2013-12-20 17:42:00,61.2,50.6,30.14,SW,215,4.6,4.6,68,0.00,CLR,,0.00,WeatherDisplay:10.37,2013-12-20 22:42:00,
2013-12-20 17:47:00,60.9,50.7,30.14,SW,214,3.5,3.5,69,0.00,CLR,,0.00,WeatherDisplay:10.37,2013-12-20 22:47:00,
2013-12-20 17:52:00,60.7,50.5,30.14,SW,215,0.0,0.5,69,0.00,CLR,,0.00,WeatherDisplay:10.37,2013-12-20 22:52:00,
2013-12-20 17:57:00,60.4,50.2,30.14,SW,215,1.2,1.6,69,0.00,CLR,,0.00,WeatherDisplay:10.37,2013-12-20 22:57:00,
2013-12-20 18:02:00,60.0,50.2,30.14,SW,215,1.2,1.2,70,0.00,CLR,,0.00,WeatherDisplay:10.37,2013-12-20 23:02:00,
2013-12-20 18:07:00,59.6,49.8,30.14,SW,214,3.5,3.5,70,0.00,CLR,,0.00,WeatherDisplay:10.37,2013-12-20 23:07:00,
2013-12-20 18:12:00,59.1,49.3,30.15,SW,215,3.5,3.5,70,0.00,CLR,,0.00,WeatherDisplay:10.37,2013-12-20 23:12:00,
2013-12-20 18:17:00,59.1,49.7,30.14,SW,215,4.0,4.0,71,0.00,CLR,,0.00,WeatherDisplay:10.37,2013-12-20 23:17:00,
2013-12-20 18:22:00,58.5,49.5,30.14,SW,215,3.5,3.5,72,0.00,CLR,,0.00,WeatherDisplay:10.37,2013-12-20 23:22:00,
2013-12-20 18:27:00,58.2,49.6,30.14,SW,216,4.6,4.6,73,0.00,CLR,,0.00,WeatherDisplay:10.37,2013-12-20 23:27:00,
2013-12-20 18:32:00,57.9,49.3,30.14,SW,216,3.5,3.5,73,0.00,CLR,,0.00,WeatherDisplay:10.37,2013-12-20 23:32:00,
2013-12-20 18:37:00,57.6,49.7,30.14,SW,216,1.2,0.0,75,0.00,CLR,,0.00,WeatherDisplay:10.37,2013-12-20 23:37:00,
2013-12-20 18:42:00,57.3,49.4,30.14,SW,216,2.3,2.3,75,0.00,CLR,,0.00,WeatherDisplay:10.37,2013-12-20 23:42:00,
2013-12-20 18:47:00,57.0,49.2,30.14,SW,215,3.5,3.5,75,0.00,CLR,,0.00,WeatherDisplay:10.37,2013-12-20 23:47:00,
2013-12-20 18:52:00,56.6,48.8,30.14,SW,216,3.5,3.5,75,0.00,CLR,,0.00,WeatherDisplay:10.37,2013-12-20 23:52:00,
2013-12-20 18:57:00,56.3,48.8,30.15,SSW,212,3.5,3.6,76,0.00,CLR,,0.00,WeatherDisplay:10.37,2013-12-20 23:57:00,
2013-12-20 19:02:00,55.9,48.8,30.14,South,174,4.6,4.6,77,0.00,CLR,,0.00,WeatherDisplay:10.37,2013-12-21 00:02:00,
2013-12-20 19:07:00,55.7,48.9,30.14,SSW,200,4.6,4.6,78,0.00,CLR,,0.00,WeatherDisplay:10.37,2013-12-21 00:07:00,
2013-12-20 19:12:00,55.5,49.8,30.15,SSW,200,3.5,3.5,81,0.00,CLR,,0.00,WeatherDisplay:10.37,2013-12-21 00:12:00,
2013-12-20 19:17:00,55.4,48.7,30.15,SSW,213,4.6,4.6,78,0.00,CLR,,0.00,WeatherDisplay:10.37,2013-12-21 00:17:00,
2013-12-20 19:22:00,55.3,48.9,30.15,SSE,166,3.5,3.5,79,0.00,CLR,,0.00,WeatherDisplay:10.37,2013-12-21 00:22:00,
2013-12-20 19:27:00,55.2,48.8,30.15,South,184,6.0,6.0,79,0.00,CLR,,0.00,WeatherDisplay:10.37,2013-12-21 00:27:00,
2013-12-20 19:32:00,55.2,48.8,30.15,SW,219,3.5,3.5,79,0.00,CLR,,0.00,WeatherDisplay:10.37,2013-12-21 00:32:00,
2013-12-20 19:37:00,55.3,48.9,30.15,SSW,204,4.6,4.6,79,0.00,CLR,,0.00,WeatherDisplay:10.37,2013-12-21 00:37:00,
2013-12-20 19:42:00,55.4,49.0,30.15,SSW,206,5.8,5.8,79,0.00,CLR,,0.00,WeatherDisplay:10.37,2013-12-21 00:42:00,
2013-12-20 19:47:00,55.5,48.8,30.15,SSW,207,6.9,6.9,78,0.00,CLR,,0.00,WeatherDisplay:10.37,2013-12-21 00:47:00,
2013-12-20 19:52:00,55.6,48.8,30.15,SSW,209,6.9,6.9,78,0.00,CLR,,0.00,WeatherDisplay:10.37,2013-12-21 00:52:00,
2013-12-20 19:57:00,55.6,48.8,30.15,SW,215,5.8,5.8,78,0.00,CLR,,0.00,WeatherDisplay:10.37,2013-12-21 00:57:00,
2013-12-20 20:02:00,55.7,48.6,30.15,SSW,204,4.6,4.6,77,0.00,CLR,,0.00,WeatherDisplay:10.37,2013-12-21 01:02:00,
2013-12-20 20:07:00,55.7,48.6,30.15,South,190,11.5,11.5,77,0.00,CLR,,0.00,WeatherDisplay:10.37,2013-12-21 01:07:00,
2013-12-20 20:12:00,55.8,48.7,30.15,SW,225,4.6,4.6,77,0.00,CLR,,0.00,WeatherDisplay:10.37,2013-12-21 01:12:00,
2013-12-20 20:17:00,55.9,48.8,30.14,SSW,203,6.9,6.9,77,0.00,CLR,,0.00,WeatherDisplay:10.37,2013-12-21 01:17:00,
2013-12-20 20:22:00,56.0,48.9,30.14,SSW,196,3.5,3.5,77,0.00,CLR,,0.00,WeatherDisplay:10.37,2013-12-21 01:22:00,
2013-12-20 20:27:00,56.0,48.9,30.15,SSW,209,3.5,3.5,77,0.00,CLR,,0.00,WeatherDisplay:10.37,2013-12-21 01:27:00,
2013-12-20 20:32:00,56.1,49.0,30.14,SSW,209,3.5,3.5,77,0.00,CLR,,0.00,WeatherDisplay:10.37,2013-12-21 01:32:00,
2013-12-20 20:37:00,56.1,48.6,30.15,SSW,209,3.5,3.5,76,0.00,CLR,,0.00,WeatherDisplay:10.37,2013-12-21 01:37:00,
2013-12-20 20:42:00,56.0,48.5,30.15,SSW,209,2.0,2.0,76,0.00,CLR,,0.00,WeatherDisplay:10.37,2013-12-21 01:42:00,
2013-12-20 20:47:00,55.8,48.3,30.15,SW,219,3.5,3.5,76,0.00,CLR,,0.00,WeatherDisplay:10.37,2013-12-21 01:47:00,
2013-12-20 20:52:00,55.7,48.2,30.15,SW,219,1.2,1.2,76,0.00,CLR,,0.00,WeatherDisplay:10.37,2013-12-21 01:52:00,
2013-12-20 20:57:00,55.6,48.5,30.15,SW,219,4.6,4.6,77,0.00,CLR,,0.00,WeatherDisplay:10.37,2013-12-21 01:57:00,
2013-12-20 21:02:00,55.4,48.3,30.15,SW,214,4.6,4.6,77,0.00,CLR,,0.00,WeatherDisplay:10.37,2013-12-21 02:02:00,
2013-12-20 21:07:00,55.1,48.0,30.15,SW,214,3.5,3.5,77,0.00,CLR,,0.00,WeatherDisplay:10.37,2013-12-21 02:07:00,
2013-12-20 21:12:00,54.9,47.8,30.15,SW,214,3.5,3.5,77,0.00,CLR,,0.00,WeatherDisplay:10.37,2013-12-21 02:12:00,
2013-12-20 21:17:00,54.6,47.9,30.15,SSW,212,5.8,5.8,78,0.00,CLR,,0.00,WeatherDisplay:10.37,2013-12-21 02:17:00,
2013-12-20 21:22:00,54.3,47.6,30.15,SSW,212,3.5,3.6,78,0.00,CLR,,0.00,WeatherDisplay:10.37,2013-12-21 02:22:00,
2013-12-20 21:27:00,54.1,47.4,30.15,SW,218,3.5,3.5,78,0.00,CLR,,0.00,WeatherDisplay:10.37,2013-12-21 02:27:00,
2013-12-20 21:32:00,53.8,47.4,30.15,SW,214,4.6,4.6,79,0.00,CLR,,0.00,WeatherDisplay:10.37,2013-12-21 02:32:00,
2013-12-20 21:37:00,53.6,47.6,30.15,SW,215,4.6,4.6,80,0.00,CLR,,0.00,WeatherDisplay:10.37,2013-12-21 02:37:00,
2013-12-20 21:42:00,53.5,47.5,30.15,SW,215,3.5,3.5,80,0.00,CLR,,0.00,WeatherDisplay:10.37,2013-12-21 02:42:00,
2013-12-20 21:47:00,53.3,47.3,30.15,SW,214,4.0,4.0,80,0.00,CLR,,0.00,WeatherDisplay:10.37,2013-12-21 02:47:00,
2013-12-20 21:52:00,53.2,47.5,30.15,SW,214,3.5,3.7,81,0.00,CLR,,0.00,WeatherDisplay:10.37,2013-12-21 02:52:00,
2013-12-20 21:57:00,53.1,47.4,30.15,SW,214,4.6,4.6,81,0.00,CLR,,0.00,WeatherDisplay:10.37,2013-12-21 02:57:00,
2013-12-20 22:02:00,53.0,47.3,30.15,SW,214,4.6,4.6,81,0.00,CLR,,0.00,WeatherDisplay:10.37,2013-12-21 03:02:00,
2013-12-20 22:07:00,52.9,47.2,30.15,SW,214,3.5,3.5,81,0.00,CLR,,0.00,WeatherDisplay:10.37,2013-12-21 03:07:00,
2013-12-20 22:12:00,52.8,47.5,30.15,SW,214,3.5,3.5,82,0.00,CLR,,0.00,WeatherDisplay:10.37,2013-12-21 03:12:00,
2013-12-20 22:17:00,52.7,47.4,30.15,SW,214,3.5,3.5,82,0.00,CLR,,0.00,WeatherDisplay:10.37,2013-12-21 03:17:00,
2013-12-20 22:22:00,52.7,47.4,30.15,SW,214,3.5,3.5,82,0.00,CLR,,0.00,WeatherDisplay:10.37,2013-12-21 03:22:00,
2013-12-20 22:27:00,52.6,47.9,30.15,SW,214,2.3,2.3,84,0.00,CLR,,0.00,WeatherDisplay:10.37,2013-12-21 03:27:00,
2013-12-20 22:32:00,52.6,47.3,30.15,SW,214,1.2,0.0,82,0.00,CLR,,0.00,WeatherDisplay:10.37,2013-12-21 03:32:00,
2013-12-20 22:37:00,52.5,47.8,30.15,SW,214,0.0,0.0,84,0.00,CLR,,0.00,WeatherDisplay:10.37,2013-12-21 03:37:00,
2013-12-20 22:42:00,52.3,47.0,30.15,SW,214,0.0,0.0,82,0.00,CLR,,0.00,WeatherDisplay:10.37,2013-12-21 03:42:00,
2013-12-20 22:47:00,52.2,46.9,30.15,SW,214,3.5,3.5,82,0.00,CLR,,0.00,WeatherDisplay:10.37,2013-12-21 03:47:00,
2013-12-20 22:52:00,52.0,47.3,30.15,SW,214,0.0,0.0,84,0.00,CLR,,0.00,WeatherDisplay:10.37,2013-12-21 03:52:00,
2013-12-20 22:57:00,51.9,47.2,30.15,SW,214,0.0,0.0,84,0.00,CLR,,0.00,WeatherDisplay:10.37,2013-12-21 03:57:00,
2013-12-20 23:02:00,51.8,47.1,30.14,SW,214,0.0,0.0,84,0.00,CLR,,0.00,WeatherDisplay:10.37,2013-12-21 04:02:00,
2013-12-20 23:07:00,51.6,47.2,30.14,SW,214,0.0,0.0,85,0.00,CLR,,0.00,WeatherDisplay:10.37,2013-12-21 04:07:00,
2013-12-20 23:12:00,51.4,46.7,30.14,SW,214,3.5,3.5,84,0.00,CLR,,0.00,WeatherDisplay:10.37,2013-12-21 04:12:00,
2013-12-20 23:17:00,51.2,46.5,30.14,SW,214,0.0,0.0,84,0.00,CLR,,0.00,WeatherDisplay:10.37,2013-12-21 04:17:00,
2013-12-20 23:22:00,51.1,46.7,30.14,SW,214,3.5,3.5,85,0.00,CLR,,0.00,WeatherDisplay:10.37,2013-12-21 04:22:00,
2013-12-20 23:27:00,50.9,46.6,30.14,SW,214,0.0,0.0,85,0.00,CLR,,0.00,WeatherDisplay:10.37,2013-12-21 04:27:00,
2013-12-20 23:32:00,50.7,46.4,30.14,SW,214,0.0,0.0,85,0.00,CLR,,0.00,WeatherDisplay:10.37,2013-12-21 04:32:00,
2013-12-20 23:37:00,50.5,46.2,30.14,SW,214,1.2,0.0,85,0.00,CLR,,0.00,WeatherDisplay:10.37,2013-12-21 04:37:00,
2013-12-20 23:42:00,50.4,46.1,30.14,SW,214,0.0,0.0,85,0.00,CLR,,0.00,WeatherDisplay:10.37,2013-12-21 04:42:00,
2013-12-20 23:47:00,50.2,45.9,30.14,SW,214,0.0,0.0,85,0.00,CLR,,0.00,WeatherDisplay:10.37,2013-12-21 04:47:00,
2013-12-20 23:52:00,50.0,45.7,30.14,SW,214,0.0,0.0,85,0.00,CLR,,0.00,WeatherDisplay:10.37,2013-12-21 04:52:00,
2013-12-20 23:57:00,49.8,45.5,30.14,SW,214,2.3,2.3,85,0.00,CLR,,0.00,WeatherDisplay:10.37,2013-12-21 04:57:00,